Platitera Thassou — SY5479 — position and weather

sailwx.info

Track history (hours):
 
Tides and Currents Weather Stations Pressure Air Temp Water Temp Dewpoint Dewpoint Depression Visibility Wind Speed Wind Dir Waves Ship Positions

Platitera Thassou

Last reported at 2017-Nov-19 15:58 UTC. Time now 2017-Nov-20 09:51 UTC.
Position N 40°51' E 024°42'.

Length 84 m; draft 2.4 m.

Type: Passenger vessel. MMSI: 237871300.

Date/timePositionNaut miles runAvg speedWind from/ knotsBaromVisibWave heightAir tempDewpointWater temp
2017-Nov-19 15:58N 40°51' E 024°42'1 2.6
2017-Nov-19 15:30N 40°51' E 024°41'4 8.2
2017-Nov-19 15:00N 40°47' E 024°42'1 2.6
2017-Nov-19 14:30N 40°48' E 024°42'3 6.8
2017-Nov-19 14:00N 40°51' E 024°42'1 2.3
2017-Nov-19 13:30N 40°51' E 024°41'4 8.4
2017-Nov-19 13:00N 40°47' E 024°42'0 0.0
2017-Nov-19 12:30N 40°47' E 024°42'0 0.0
2017-Nov-19 08:36N 40°47' E 024°42'0 0.0
2017-Nov-19 08:30N 40°47' E 024°42'0 0.0
2017-Nov-19 08:00N 40°47' E 024°42'0 0.0
2017-Nov-19 07:30N 40°47' E 024°42'0 0.0
2017-Nov-19 07:00N 40°47' E 024°42'0 0.0
2017-Nov-19 06:30N 40°47' E 024°42'2 3.2
2017-Nov-19 06:00N 40°48' E 024°42'3 6.2
2017-Nov-19 05:30N 40°51' E 024°42'0 0.0
2017-Nov-19 05:00N 40°51' E 024°42'0 0.0
2017-Nov-18 18:06N 40°51' E 024°42'0 0.1
2017-Nov-18 18:00N 40°51' E 024°42'1 2.8
2017-Nov-18 17:30N 40°51' E 024°41'4 7.8
2017-Nov-18 17:00N 40°47' E 024°42'0 0.0
2017-Nov-18 16:30N 40°47' E 024°42'0 0.0
2017-Nov-18 16:00N 40°47' E 024°42'0 0.0
2017-Nov-18 15:30N 40°47' E 024°42'0 0.0
2017-Nov-18 15:00N 40°47' E 024°42'0 0.0
2017-Nov-18 14:30N 40°47' E 024°42'0 0.0
2017-Nov-18 14:00N 40°47' E 024°42'0 0.0
2017-Nov-18 13:30N 40°47' E 024°42'0 0.0
2017-Nov-18 13:00N 40°47' E 024°42'0 0.0
2017-Nov-18 12:30N 40°47' E 024°42'0 0.0
2017-Nov-18 12:00N 40°47' E 024°42'0 0.0
2017-Nov-18 11:30N 40°47' E 024°42'0 0.0
2017-Nov-18 11:00N 40°47' E 024°42'0 0.0
2017-Nov-18 10:30N 40°47' E 024°42'0 0.0
2017-Nov-18 10:00N 40°47' E 024°42'0 0.0
2017-Nov-18 09:30N 40°47' E 024°42'0 0.1
2017-Nov-18 09:00N 40°47' E 024°42'0 0.0
2017-Nov-18 08:30N 40°47' E 024°42'4 7.1
2017-Nov-18 08:00N 40°50' E 024°41'2 3.1
2017-Nov-18 07:30N 40°51' E 024°42'1 2.0
2017-Nov-18 07:00N 40°51' E 024°41'5 9.0
2017-Nov-18 06:30N 40°47' E 024°42'0 0.5
2017-Nov-18 06:00N 40°47' E 024°43'0 0.0
2017-Nov-17 11:53N 40°47' E 024°43'1 3.6
2017-Nov-17 11:30N 40°48' E 024°42'3 6.9
2017-Nov-17 11:00N 40°51' E 024°42'0 0.1
2017-Nov-17 10:30N 40°51' E 024°42'3 5.2
2017-Nov-17 10:00N 40°49' E 024°41'2 4.5
2017-Nov-17 09:30N 40°47' E 024°42'0 0.0
2017-Nov-17 09:00N 40°47' E 024°42'3 6.9
2017-Nov-17 08:30N 40°50' E 024°41'2 3.0
2017-Nov-17 08:00N 40°51' E 024°42'1 2.0
2017-Nov-17 07:30N 40°51' E 024°41'5 9.0
2017-Nov-17 07:00N 40°47' E 024°42'0 0.0
2017-Nov-17 06:30N 40°47' E 024°42'1 3.0
2017-Nov-17 06:00N 40°48' E 024°42'3 6.5
2017-Nov-17 05:30N 40°51' E 024°42'0 0.0
2017-Nov-17 05:00N 40°51' E 024°42'0 0.0
2017-Nov-17 04:30N 40°51' E 024°42'0 0.0
2017-Nov-16 14:58N 40°51' E 024°42'1 2.5
2017-Nov-16 14:30N 40°51' E 024°41'4 8.3
2017-Nov-16 14:01N 40°47' E 024°42'0 0.0
2017-Nov-16 13:30N 40°47' E 024°42'0 0.0
2017-Nov-16 13:00N 40°47' E 024°42'4 7.4
2017-Nov-16 12:30N 40°50' E 024°41'2 3.2
2017-Nov-16 12:00N 40°51' E 024°42'1 2.3
2017-Nov-16 11:30N 40°51' E 024°41'4 8.1
2017-Nov-16 11:00N 40°47' E 024°42'0 0.0
2017-Nov-16 10:31N 40°47' E 024°42'0 0.5
2017-Nov-16 10:00N 40°47' E 024°43'0 0.0
2017-Nov-16 09:30N 40°47' E 024°43'0 0.0
2017-Nov-16 09:00N 40°47' E 024°43'0 0.0
2017-Nov-16 08:31N 40°47' E 024°43'0 0.5
2017-Nov-16 08:00N 40°47' E 024°42'0 0.0
2017-Nov-16 07:30N 40°47' E 024°42'0 0.0
2017-Nov-16 07:00N 40°47' E 024°42'0 0.0
2017-Nov-16 06:31N 40°47' E 024°42'0 0.0
2017-Nov-16 06:00N 40°47' E 024°42'0 0.0
2017-Nov-16 05:30N 40°47' E 024°42'0 0.0
2017-Nov-16 05:00N 40°47' E 024°42'2 3.8
2017-Nov-16 04:31N 40°49' E 024°41'3 5.9
2017-Nov-16 04:00N 40°51' E 024°42'0 0.0
2017-Nov-16 03:30N 40°51' E 024°42'0 0.0
2017-Nov-16 03:00N 40°51' E 024°42'0 0.0
2017-Nov-15 16:19N 40°51' E 024°42'0 0.0
2017-Nov-15 16:00N 40°51' E 024°42'1 2.3
2017-Nov-15 15:30N 40°51' E 024°41'4 8.5
2017-Nov-15 15:00N 40°47' E 024°42'2 4.6
2017-Nov-15 14:30N 40°49' E 024°41'3 5.3
2017-Nov-15 14:00N 40°51' E 024°42'1 2.4
2017-Nov-15 13:30N 40°50' E 024°41'4 7.5
2017-Nov-15 13:00N 40°47' E 024°42'0 0.0
2017-Nov-15 12:30N 40°47' E 024°42'0 0.0
2017-Nov-15 12:00N 40°47' E 024°42'2 4.3
2017-Nov-15 11:30N 40°49' E 024°41'3 5.6
2017-Nov-15 11:00N 40°51' E 024°42'0 0.0
2017-Nov-15 10:30N 40°51' E 024°42'3 5.6
2017-Nov-15 10:00N 40°49' E 024°42'1 2.9
2017-Nov-15 09:30N 40°47' E 024°42'3 6.6
2017-Nov-15 09:00N 40°50' E 024°41'2 3.2
2017-Nov-15 08:30N 40°51' E 024°42'1 2.2
2017-Nov-15 08:00N 40°51' E 024°41'4 8.8
2017-Nov-15 07:30N 40°47' E 024°42'0 1.0
2017-Nov-15 07:00N 40°47' E 024°42'3 7.0
2017-Nov-15 06:30N 40°51' E 024°40'2 3.2
2017-Nov-15 06:00N 40°51' E 024°42'1 1.9
2017-Nov-15 05:30N 40°51' E 024°41'4 8.1
2017-Nov-15 05:00N 40°47' E 024°42'0 0.0
2017-Nov-15 04:30N 40°47' E 024°42'0 0.0
2017-Nov-14 13:17N 40°47' E 024°42'0 0.0
2017-Nov-14 13:00N 40°47' E 024°42'4 7.3
2017-Nov-14 12:30N 40°50' E 024°41'1 2.8
2017-Nov-14 12:00N 40°51' E 024°42'1 1.7
2017-Nov-14 11:30N 40°51' E 024°41'5 9.4
2017-Nov-14 11:00N 40°47' E 024°42'0 0.0
2017-Nov-14 10:30N 40°47' E 024°42'0 0.0
2017-Nov-14 10:00N 40°47' E 024°42'0 0.0
2017-Nov-14 09:30N 40°47' E 024°42'0 0.0
2017-Nov-14 09:00N 40°47' E 024°42'0 0.0
2017-Nov-14 08:30N 40°47' E 024°42'0 0.0
2017-Nov-14 08:00N 40°47' E 024°42'1 2.1
2017-Nov-14 07:30N 40°48' E 024°42'4 7.3
2017-Nov-14 07:00N 40°51' E 024°42'0 0.0
2017-Nov-14 06:28N 40°51' E 024°42'2 5.3
2017-Nov-14 06:00N 40°49' E 024°42'2 4.5
2017-Nov-14 05:30N 40°47' E 024°42'0 0.0
2017-Nov-14 05:00N 40°47' E 024°42'1 2.6
2017-Nov-14 04:30N 40°48' E 024°42'3 6.8
2017-Nov-14 04:00N 40°51' E 024°42'0 0.1
2017-Nov-14 03:30N 40°51' E 024°42'5 0.1
2017-Nov-12 13:10N 40°47' E 024°43'0 0.0
2017-Nov-12 13:00N 40°47' E 024°43'3 6.6
2017-Nov-12 12:30N 40°50' E 024°41'2 3.2
2017-Nov-12 12:00N 40°51' E 024°42'1 1.8
2017-Nov-12 11:30N 40°51' E 024°41'5 9.2
2017-Nov-12 11:00N 40°47' E 024°42'0 0.0
2017-Nov-12 10:30N 40°47' E 024°42'0 0.0
2017-Nov-12 10:00N 40°47' E 024°42'0 0.0
2017-Nov-12 09:30N 40°47' E 024°42'0 0.0
2017-Nov-12 09:00N 40°47' E 024°42'3 6.7
2017-Nov-12 08:30N 40°50' E 024°41'2 3.2
2017-Nov-12 08:00N 40°51' E 024°42'1 1.9
2017-Nov-12 07:30N 40°51' E 024°41'4 8.4
2017-Nov-12 07:00N 40°47' E 024°42'0 0.0
2017-Nov-12 06:30N 40°47' E 024°42'1 1.8
2017-Nov-12 06:00N 40°48' E 024°42'4 7.4
2017-Nov-12 05:30N 40°51' E 024°42'0 0.1
2017-Nov-12 05:00N 40°51' E 024°42'0 0.0
2017-Nov-11 17:54N 40°51' E 024°42'1 2.3
2017-Nov-11 17:30N 40°51' E 024°41'5 9.1
2017-Nov-11 17:00N 40°47' E 024°42'0 0.0
2017-Nov-11 16:30N 40°47' E 024°42'0 0.0
2017-Nov-11 16:01N 40°47' E 024°42'0 0.0
2017-Nov-11 15:30N 40°47' E 024°42'0 0.0
2017-Nov-11 15:01N 40°47' E 024°42'0 0.0
2017-Nov-11 14:30N 40°47' E 024°42'0 0.0
2017-Nov-11 14:00N 40°47' E 024°42'0 0.0
2017-Nov-11 13:30N 40°47' E 024°42'0 0.0
2017-Nov-11 13:00N 40°47' E 024°42'0 0.0
2017-Nov-11 12:30N 40°47' E 024°42'0 0.0
2017-Nov-11 12:01N 40°47' E 024°42'1 3.0
2017-Nov-11 11:30N 40°48' E 024°42'3 6.3
2017-Nov-11 11:00N 40°51' E 024°42'0 0.0
2017-Nov-11 10:31N 40°51' E 024°42'3 6.2
2017-Nov-11 10:00N 40°48' E 024°42'2 3.1
2017-Nov-11 09:30N 40°47' E 024°42'0 0.6
2017-Nov-11 08:58N 40°47' E 024°43'0 0.0
2017-Nov-10 11:12N 40°47' E 024°43'0 0.2
2017-Nov-10 11:00N 40°47' E 024°43'3 6.8
2017-Nov-10 10:30N 40°50' E 024°41'2 3.1
2017-Nov-10 10:00N 40°51' E 024°42'1 1.6
2017-Nov-10 09:31N 40°52' E 024°41'5 9.7
2017-Nov-10 09:01N 40°47' E 024°42'0 0.1
2017-Nov-10 08:31N 40°47' E 024°42'0 0.0
2017-Nov-10 08:01N 40°47' E 024°42'1 1.5
2017-Nov-10 07:31N 40°48' E 024°42'4 7.8
2017-Nov-10 07:01N 40°51' E 024°42'0 0.1
2017-Nov-10 06:31N 40°51' E 024°42'2 4.5
2017-Nov-10 06:00N 40°49' E 024°42'2 5.0
2017-Nov-10 05:31N 40°47' E 024°42'3 6.4
2017-Nov-10 05:01N 40°50' E 024°41'2 3.2
2017-Nov-10 04:30N 40°51' E 024°42'1 1.9
2017-Nov-10 04:01N 40°51' E 024°41'5 9.4
2017-Nov-10 03:31N 40°47' E 024°42'0 0.0
2017-Nov-10 03:01N 40°47' E 024°42'0 0.0
2017-Nov-10 02:31N 40°47' E 024°42'  
Track history (hours):
 
Tides and Currents Weather Stations Pressure Air Temp Water Temp Dewpoint Dewpoint Depression Visibility Wind Speed Wind Dir Waves Ship Positions

Platitera Thassou

Last reported at 2017-Nov-19 15:58 UTC. Time now 2017-Nov-20 09:51 UTC.
Position N 40°51' E 024°42'.

Length 84 m; draft 2.4 m.

Type: Passenger vessel. MMSI: 237871300.

Date/timePositionNaut miles runAvg speedWind from/ knotsBaromVisibWave heightAir tempDewpointWater temp
2017-Nov-19 15:58N 40°51' E 024°42'1 2.6
2017-Nov-19 15:30N 40°51' E 024°41'4 8.2
2017-Nov-19 15:00N 40°47' E 024°42'1 2.6
2017-Nov-19 14:30N 40°48' E 024°42'3 6.8
2017-Nov-19 14:00N 40°51' E 024°42'1 2.3
2017-Nov-19 13:30N 40°51' E 024°41'4 8.4
2017-Nov-19 13:00N 40°47' E 024°42'0 0.0
2017-Nov-19 12:30N 40°47' E 024°42'0 0.0
2017-Nov-19 08:36N 40°47' E 024°42'0 0.0
2017-Nov-19 08:30N 40°47' E 024°42'0 0.0
2017-Nov-19 08:00N 40°47' E 024°42'0 0.0
2017-Nov-19 07:30N 40°47' E 024°42'0 0.0
2017-Nov-19 07:00N 40°47' E 024°42'0 0.0
2017-Nov-19 06:30N 40°47' E 024°42'2 3.2
2017-Nov-19 06:00N 40°48' E 024°42'3 6.2
2017-Nov-19 05:30N 40°51' E 024°42'0 0.0
2017-Nov-19 05:00N 40°51' E 024°42'0 0.0
2017-Nov-18 18:06N 40°51' E 024°42'0 0.1
2017-Nov-18 18:00N 40°51' E 024°42'1 2.8
2017-Nov-18 17:30N 40°51' E 024°41'4 7.8
2017-Nov-18 17:00N 40°47' E 024°42'0 0.0
2017-Nov-18 16:30N 40°47' E 024°42'0 0.0
2017-Nov-18 16:00N 40°47' E 024°42'0 0.0
2017-Nov-18 15:30N 40°47' E 024°42'0 0.0
2017-Nov-18 15:00N 40°47' E 024°42'0 0.0
2017-Nov-18 14:30N 40°47' E 024°42'0 0.0
2017-Nov-18 14:00N 40°47' E 024°42'0 0.0
2017-Nov-18 13:30N 40°47' E 024°42'0 0.0
2017-Nov-18 13:00N 40°47' E 024°42'0 0.0
2017-Nov-18 12:30N 40°47' E 024°42'0 0.0
2017-Nov-18 12:00N 40°47' E 024°42'0 0.0
2017-Nov-18 11:30N 40°47' E 024°42'0 0.0
2017-Nov-18 11:00N 40°47' E 024°42'0 0.0
2017-Nov-18 10:30N 40°47' E 024°42'0 0.0
2017-Nov-18 10:00N 40°47' E 024°42'0 0.0
2017-Nov-18 09:30N 40°47' E 024°42'0 0.1
2017-Nov-18 09:00N 40°47' E 024°42'0 0.0
2017-Nov-18 08:30N 40°47' E 024°42'4 7.1
2017-Nov-18 08:00N 40°50' E 024°41'2 3.1
2017-Nov-18 07:30N 40°51' E 024°42'1 2.0
2017-Nov-18 07:00N 40°51' E 024°41'5 9.0
2017-Nov-18 06:30N 40°47' E 024°42'0 0.5
2017-Nov-18 06:00N 40°47' E 024°43'0 0.0
2017-Nov-17 11:53N 40°47' E 024°43'1 3.6
2017-Nov-17 11:30N 40°48' E 024°42'3 6.9
2017-Nov-17 11:00N 40°51' E 024°42'0 0.1
2017-Nov-17 10:30N 40°51' E 024°42'3 5.2
2017-Nov-17 10:00N 40°49' E 024°41'2 4.5
2017-Nov-17 09:30N 40°47' E 024°42'0 0.0
2017-Nov-17 09:00N 40°47' E 024°42'3 6.9
2017-Nov-17 08:30N 40°50' E 024°41'2 3.0
2017-Nov-17 08:00N 40°51' E 024°42'1 2.0
2017-Nov-17 07:30N 40°51' E 024°41'5 9.0
2017-Nov-17 07:00N 40°47' E 024°42'0 0.0
2017-Nov-17 06:30N 40°47' E 024°42'1 3.0
2017-Nov-17 06:00N 40°48' E 024°42'3 6.5
2017-Nov-17 05:30N 40°51' E 024°42'0 0.0
2017-Nov-17 05:00N 40°51' E 024°42'0 0.0
2017-Nov-17 04:30N 40°51' E 024°42'0 0.0
2017-Nov-16 14:58N 40°51' E 024°42'1 2.5
2017-Nov-16 14:30N 40°51' E 024°41'4 8.3
2017-Nov-16 14:01N 40°47' E 024°42'0 0.0
2017-Nov-16 13:30N 40°47' E 024°42'0 0.0
2017-Nov-16 13:00N 40°47' E 024°42'4 7.4
2017-Nov-16 12:30N 40°50' E 024°41'2 3.2
2017-Nov-16 12:00N 40°51' E 024°42'1 2.3
2017-Nov-16 11:30N 40°51' E 024°41'4 8.1
2017-Nov-16 11:00N 40°47' E 024°42'0 0.0
2017-Nov-16 10:31N 40°47' E 024°42'0 0.5
2017-Nov-16 10:00N 40°47' E 024°43'0 0.0
2017-Nov-16 09:30N 40°47' E 024°43'0 0.0
2017-Nov-16 09:00N 40°47' E 024°43'0 0.0
2017-Nov-16 08:31N 40°47' E 024°43'0 0.5
2017-Nov-16 08:00N 40°47' E 024°42'0 0.0
2017-Nov-16 07:30N 40°47' E 024°42'0 0.0
2017-Nov-16 07:00N 40°47' E 024°42'0 0.0
2017-Nov-16 06:31N 40°47' E 024°42'0 0.0
2017-Nov-16 06:00N 40°47' E 024°42'0 0.0
2017-Nov-16 05:30N 40°47' E 024°42'0 0.0
2017-Nov-16 05:00N 40°47' E 024°42'2 3.8
2017-Nov-16 04:31N 40°49' E 024°41'3 5.9
2017-Nov-16 04:00N 40°51' E 024°42'0 0.0
2017-Nov-16 03:30N 40°51' E 024°42'0 0.0
2017-Nov-16 03:00N 40°51' E 024°42'0 0.0
2017-Nov-15 16:19N 40°51' E 024°42'0 0.0
2017-Nov-15 16:00N 40°51' E 024°42'1 2.3
2017-Nov-15 15:30N 40°51' E 024°41'4 8.5
2017-Nov-15 15:00N 40°47' E 024°42'2 4.6
2017-Nov-15 14:30N 40°49' E 024°41'3 5.3
2017-Nov-15 14:00N 40°51' E 024°42'1 2.4
2017-Nov-15 13:30N 40°50' E 024°41'4 7.5
2017-Nov-15 13:00N 40°47' E 024°42'0 0.0
2017-Nov-15 12:30N 40°47' E 024°42'0 0.0
2017-Nov-15 12:00N 40°47' E 024°42'2 4.3
2017-Nov-15 11:30N 40°49' E 024°41'3 5.6
2017-Nov-15 11:00N 40°51' E 024°42'0 0.0
2017-Nov-15 10:30N 40°51' E 024°42'3 5.6
2017-Nov-15 10:00N 40°49' E 024°42'1 2.9
2017-Nov-15 09:30N 40°47' E 024°42'3 6.6
2017-Nov-15 09:00N 40°50' E 024°41'2 3.2
2017-Nov-15 08:30N 40°51' E 024°42'1 2.2
2017-Nov-15 08:00N 40°51' E 024°41'4 8.8
2017-Nov-15 07:30N 40°47' E 024°42'0 1.0
2017-Nov-15 07:00N 40°47' E 024°42'3 7.0
2017-Nov-15 06:30N 40°51' E 024°40'2 3.2
2017-Nov-15 06:00N 40°51' E 024°42'1 1.9
2017-Nov-15 05:30N 40°51' E 024°41'4 8.1
2017-Nov-15 05:00N 40°47' E 024°42'0 0.0
2017-Nov-15 04:30N 40°47' E 024°42'0 0.0
2017-Nov-14 13:17N 40°47' E 024°42'0 0.0
2017-Nov-14 13:00N 40°47' E 024°42'4 7.3
2017-Nov-14 12:30N 40°50' E 024°41'1 2.8
2017-Nov-14 12:00N 40°51' E 024°42'1 1.7
2017-Nov-14 11:30N 40°51' E 024°41'5 9.4
2017-Nov-14 11:00N 40°47' E 024°42'0 0.0
2017-Nov-14 10:30N 40°47' E 024°42'0 0.0
2017-Nov-14 10:00N 40°47' E 024°42'0 0.0
2017-Nov-14 09:30N 40°47' E 024°42'0 0.0
2017-Nov-14 09:00N 40°47' E 024°42'0 0.0
2017-Nov-14 08:30N 40°47' E 024°42'0 0.0
2017-Nov-14 08:00N 40°47' E 024°42'1 2.1
2017-Nov-14 07:30N 40°48' E 024°42'4 7.3
2017-Nov-14 07:00N 40°51' E 024°42'0 0.0
2017-Nov-14 06:28N 40°51' E 024°42'2 5.3
2017-Nov-14 06:00N 40°49' E 024°42'2 4.5
2017-Nov-14 05:30N 40°47' E 024°42'0 0.0
2017-Nov-14 05:00N 40°47' E 024°42'1 2.6
2017-Nov-14 04:30N 40°48' E 024°42'3 6.8
2017-Nov-14 04:00N 40°51' E 024°42'0 0.1
2017-Nov-14 03:30N 40°51' E 024°42'5 0.1
2017-Nov-12 13:10N 40°47' E 024°43'0 0.0
2017-Nov-12 13:00N 40°47' E 024°43'3 6.6
2017-Nov-12 12:30N 40°50' E 024°41'2 3.2
2017-Nov-12 12:00N 40°51' E 024°42'1 1.8
2017-Nov-12 11:30N 40°51' E 024°41'5 9.2
2017-Nov-12 11:00N 40°47' E 024°42'0 0.0
2017-Nov-12 10:30N 40°47' E 024°42'0 0.0
2017-Nov-12 10:00N 40°47' E 024°42'0 0.0
2017-Nov-12 09:30N 40°47' E 024°42'0 0.0
2017-Nov-12 09:00N 40°47' E 024°42'3 6.7
2017-Nov-12 08:30N 40°50' E 024°41'2 3.2
2017-Nov-12 08:00N 40°51' E 024°42'1 1.9
2017-Nov-12 07:30N 40°51' E 024°41'4 8.4
2017-Nov-12 07:00N 40°47' E 024°42'0 0.0
2017-Nov-12 06:30N 40°47' E 024°42'1 1.8
2017-Nov-12 06:00N 40°48' E 024°42'4 7.4
2017-Nov-12 05:30N 40°51' E 024°42'0 0.1
2017-Nov-12 05:00N 40°51' E 024°42'0 0.0
2017-Nov-11 17:54N 40°51' E 024°42'1 2.3
2017-Nov-11 17:30N 40°51' E 024°41'5 9.1
2017-Nov-11 17:00N 40°47' E 024°42'0 0.0
2017-Nov-11 16:30N 40°47' E 024°42'0 0.0
2017-Nov-11 16:01N 40°47' E 024°42'0 0.0
2017-Nov-11 15:30N 40°47' E 024°42'0 0.0
2017-Nov-11 15:01N 40°47' E 024°42'0 0.0
2017-Nov-11 14:30N 40°47' E 024°42'0 0.0
2017-Nov-11 14:00N 40°47' E 024°42'0 0.0
2017-Nov-11 13:30N 40°47' E 024°42'0 0.0
2017-Nov-11 13:00N 40°47' E 024°42'0 0.0
2017-Nov-11 12:30N 40°47' E 024°42'0 0.0
2017-Nov-11 12:01N 40°47' E 024°42'1 3.0
2017-Nov-11 11:30N 40°48' E 024°42'3 6.3
2017-Nov-11 11:00N 40°51' E 024°42'0 0.0
2017-Nov-11 10:31N 40°51' E 024°42'3 6.2
2017-Nov-11 10:00N 40°48' E 024°42'2 3.1
2017-Nov-11 09:30N 40°47' E 024°42'0 0.6
2017-Nov-11 08:58N 40°47' E 024°43'0 0.0
2017-Nov-10 11:12N 40°47' E 024°43'0 0.2
2017-Nov-10 11:00N 40°47' E 024°43'3 6.8
2017-Nov-10 10:30N 40°50' E 024°41'2 3.1
2017-Nov-10 10:00N 40°51' E 024°42'1 1.6
2017-Nov-10 09:31N 40°52' E 024°41'5 9.7
2017-Nov-10 09:01N 40°47' E 024°42'0 0.1
2017-Nov-10 08:31N 40°47' E 024°42'0 0.0
2017-Nov-10 08:01N 40°47' E 024°42'1 1.5
2017-Nov-10 07:31N 40°48' E 024°42'4 7.8
2017-Nov-10 07:01N 40°51' E 024°42'0 0.1
2017-Nov-10 06:31N 40°51' E 024°42'2 4.5
2017-Nov-10 06:00N 40°49' E 024°42'2 5.0
2017-Nov-10 05:31N 40°47' E 024°42'3 6.4
2017-Nov-10 05:01N 40°50' E 024°41'2 3.2
2017-Nov-10 04:30N 40°51' E 024°42'1 1.9
2017-Nov-10 04:01N 40°51' E 024°41'5 9.4
2017-Nov-10 03:31N 40°47' E 024°42'0 0.0
2017-Nov-10 03:01N 40°47' E 024°42'0 0.0
2017-Nov-10 02:31N 40°47' E 024°42'  

Dump ship's entire track history